sensor_id;sensor_type;location;lat;lon;timestamp;P1;durP1;ratioP1;P2;durP2;ratioP2
8365;SDS011;4220;42.502;24.188;2023-12-20T00:02:04;24.07;;;17.87;;
8365;SDS011;4220;42.502;24.188;2023-12-20T00:04:31;26.80;;;17.03;;
8365;SDS011;4220;42.502;24.188;2023-12-20T00:06:58;24.47;;;15.80;;
8365;SDS011;4220;42.502;24.188;2023-12-20T00:09:26;18.20;;;13.93;;
8365;SDS011;4220;42.502;24.188;2023-12-20T00:11:53;14.90;;;10.80;;
8365;SDS011;4220;42.502;24.188;2023-12-20T00:14:20;11.03;;;8.30;;
8365;SDS011;4220;42.502;24.188;2023-12-20T00:16:46;11.53;;;8.50;;
8365;SDS011;4220;42.502;24.188;2023-12-20T00:19:13;21.53;;;11.70;;
8365;SDS011;4220;42.502;24.188;2023-12-20T00:21:40;19.70;;;12.80;;
8365;SDS011;4220;42.502;24.188;2023-12-20T00:24:07;32.57;;;20.70;;
8365;SDS011;4220;42.502;24.188;2023-12-20T00:26:35;34.80;;;19.93;;
8365;SDS011;4220;42.502;24.188;2023-12-20T00:29:02;29.37;;;20.20;;
8365;SDS011;4220;42.502;24.188;2023-12-20T00:31:29;31.60;;;20.17;;
8365;SDS011;4220;42.502;24.188;2023-12-20T00:33:55;50.13;;;30.13;;
8365;SDS011;4220;42.502;24.188;2023-12-20T00:36:22;344.30;;;161.47;;
8365;SDS011;4220;42.502;24.188;2023-12-20T00:38:49;306.13;;;133.73;;
8365;SDS011;4220;42.502;24.188;2023-12-20T00:41:16;71.83;;;40.13;;
8365;SDS011;4220;42.502;24.188;2023-12-20T00:43:44;58.10;;;30.30;;
8365;SDS011;4220;42.502;24.188;2023-12-20T00:46:11;43.00;;;24.17;;
8365;SDS011;4220;42.502;24.188;2023-12-20T00:48:38;37.90;;;22.20;;
8365;SDS011;4220;42.502;24.188;2023-12-20T00:51:07;29.97;;;19.17;;
8365;SDS011;4220;42.502;24.188;2023-12-20T00:53:34;14.80;;;10.03;;
8365;SDS011;4220;42.502;24.188;2023-12-20T00:56:00;11.53;;;8.23;;
8365;SDS011;4220;42.502;24.188;2023-12-20T00:58:27;10.73;;;7.80;;
8365;SDS011;4220;42.502;24.188;2023-12-20T01:00:55;10.17;;;6.97;;
8365;SDS011;4220;42.502;24.188;2023-12-20T01:03:23;10.40;;;6.87;;
8365;SDS011;4220;42.502;24.188;2023-12-20T01:05:50;5.70;;;4.60;;
8365;SDS011;4220;42.502;24.188;2023-12-20T01:08:16;6.53;;;4.30;;
8365;SDS011;4220;42.502;24.188;2023-12-20T01:10:43;7.03;;;5.13;;
8365;SDS011;4220;42.502;24.188;2023-12-20T01:13:11;8.00;;;5.73;;
8365;SDS011;4220;42.502;24.188;2023-12-20T01:15:38;14.10;;;11.37;;
8365;SDS011;4220;42.502;24.188;2023-12-20T01:18:06;18.90;;;13.50;;
8365;SDS011;4220;42.502;24.188;2023-12-20T01:20:33;12.80;;;9.37;;
8365;SDS011;4220;42.502;24.188;2023-12-20T01:23:00;9.47;;;7.53;;
8365;SDS011;4220;42.502;24.188;2023-12-20T01:25:27;17.10;;;11.80;;
8365;SDS011;4220;42.502;24.188;2023-12-20T01:27:54;18.17;;;14.07;;
8365;SDS011;4220;42.502;24.188;2023-12-20T01:30:20;22.90;;;16.43;;
8365;SDS011;4220;42.502;24.188;2023-12-20T01:32:47;30.33;;;20.87;;
8365;SDS011;4220;42.502;24.188;2023-12-20T01:35:15;54.57;;;30.60;;
8365;SDS011;4220;42.502;24.188;2023-12-20T01:37:42;43.37;;;25.20;;
8365;SDS011;4220;42.502;24.188;2023-12-20T01:40:10;19.37;;;13.10;;
8365;SDS011;4220;42.502;24.188;2023-12-20T01:42:37;12.70;;;9.27;;
8365;SDS011;4220;42.502;24.188;2023-12-20T01:45:04;16.03;;;11.20;;
8365;SDS011;4220;42.502;24.188;2023-12-20T01:47:30;14.30;;;10.03;;
8365;SDS011;4220;42.502;24.188;2023-12-20T01:49:57;13.47;;;10.40;;
8365;SDS011;4220;42.502;24.188;2023-12-20T01:52:26;23.90;;;15.87;;
8365;SDS011;4220;42.502;24.188;2023-12-20T01:54:53;27.13;;;17.87;;
8365;SDS011;4220;42.502;24.188;2023-12-20T01:57:26;26.77;;;18.90;;
8365;SDS011;4220;42.502;24.188;2023-12-20T01:59:53;29.60;;;20.30;;
8365;SDS011;4220;42.502;24.188;2023-12-20T02:02:20;29.43;;;20.13;;
8365;SDS011;4220;42.502;24.188;2023-12-20T02:04:47;30.10;;;18.90;;
8365;SDS011;4220;42.502;24.188;2023-12-20T02:07:15;26.60;;;17.50;;
8365;SDS011;4220;42.502;24.188;2023-12-20T02:09:45;24.77;;;17.20;;
8365;SDS011;4220;42.502;24.188;2023-12-20T02:12:12;25.13;;;16.80;;
8365;SDS011;4220;42.502;24.188;2023-12-20T02:14:39;26.73;;;18.50;;
8365;SDS011;4220;42.502;24.188;2023-12-20T02:17:06;27.53;;;18.30;;
8365;SDS011;4220;42.502;24.188;2023-12-20T02:19:33;31.70;;;19.30;;
8365;SDS011;4220;42.502;24.188;2023-12-20T02:22:08;27.23;;;18.63;;
8365;SDS011;4220;42.502;24.188;2023-12-20T02:24:35;27.53;;;19.33;;
8365;SDS011;4220;42.502;24.188;2023-12-20T02:27:02;24.43;;;17.27;;
8365;SDS011;4220;42.502;24.188;2023-12-20T02:29:29;30.13;;;19.97;;
8365;SDS011;4220;42.502;24.188;2023-12-20T02:31:57;25.87;;;18.87;;
8365;SDS011;4220;42.502;24.188;2023-12-20T02:34:24;31.03;;;19.27;;
8365;SDS011;4220;42.502;24.188;2023-12-20T02:36:50;32.17;;;20.87;;
8365;SDS011;4220;42.502;24.188;2023-12-20T02:39:19;32.53;;;21.17;;
8365;SDS011;4220;42.502;24.188;2023-12-20T02:41:46;34.23;;;22.40;;
8365;SDS011;4220;42.502;24.188;2023-12-20T02:44:13;35.07;;;21.60;;
8365;SDS011;4220;42.502;24.188;2023-12-20T02:46:39;37.97;;;20.40;;
8365;SDS011;4220;42.502;24.188;2023-12-20T02:49:07;36.23;;;25.00;;
8365;SDS011;4220;42.502;24.188;2023-12-20T02:51:34;29.57;;;19.70;;
8365;SDS011;4220;42.502;24.188;2023-12-20T02:54:03;31.63;;;20.73;;
8365;SDS011;4220;42.502;24.188;2023-12-20T02:56:31;31.00;;;21.47;;
8365;SDS011;4220;42.502;24.188;2023-12-20T02:58:58;38.73;;;24.77;;
8365;SDS011;4220;42.502;24.188;2023-12-20T03:01:25;22.20;;;14.60;;
8365;SDS011;4220;42.502;24.188;2023-12-20T03:03:51;20.10;;;13.53;;
8365;SDS011;4220;42.502;24.188;2023-12-20T03:06:18;22.63;;;13.27;;
8365;SDS011;4220;42.502;24.188;2023-12-20T03:08:45;22.20;;;15.30;;
8365;SDS011;4220;42.502;24.188;2023-12-20T03:11:12;32.37;;;16.87;;
8365;SDS011;4220;42.502;24.188;2023-12-20T03:13:40;29.70;;;17.43;;
8365;SDS011;4220;42.502;24.188;2023-12-20T03:16:08;33.47;;;20.33;;
8365;SDS011;4220;42.502;24.188;2023-12-20T03:18:35;32.83;;;17.93;;
8365;SDS011;4220;42.502;24.188;2023-12-20T03:21:02;13.33;;;9.60;;
8365;SDS011;4220;42.502;24.188;2023-12-20T03:23:29;11.50;;;7.10;;
8365;SDS011;4220;42.502;24.188;2023-12-20T03:25:57;10.80;;;7.47;;
8365;SDS011;4220;42.502;24.188;2023-12-20T03:28:24;14.40;;;8.40;;
8365;SDS011;4220;42.502;24.188;2023-12-20T03:30:53;10.77;;;7.07;;
8365;SDS011;4220;42.502;24.188;2023-12-20T03:33:19;6.60;;;4.83;;
8365;SDS011;4220;42.502;24.188;2023-12-20T03:35:46;6.30;;;4.80;;
8365;SDS011;4220;42.502;24.188;2023-12-20T03:38:13;8.37;;;5.20;;
8365;SDS011;4220;42.502;24.188;2023-12-20T03:40:40;13.60;;;10.20;;
8365;SDS011;4220;42.502;24.188;2023-12-20T03:43:06;25.20;;;16.40;;
8365;SDS011;4220;42.502;24.188;2023-12-20T03:45:33;16.47;;;11.30;;
8365;SDS011;4220;42.502;24.188;2023-12-20T03:48:01;22.97;;;13.57;;
8365;SDS011;4220;42.502;24.188;2023-12-20T03:50:29;23.43;;;14.43;;
8365;SDS011;4220;42.502;24.188;2023-12-20T03:52:55;16.90;;;10.60;;
8365;SDS011;4220;42.502;24.188;2023-12-20T03:55:22;20.40;;;11.93;;
8365;SDS011;4220;42.502;24.188;2023-12-20T03:57:49;23.40;;;17.13;;
8365;SDS011;4220;42.502;24.188;2023-12-20T04:00:16;31.23;;;21.03;;
8365;SDS011;4220;42.502;24.188;2023-12-20T04:02:43;28.97;;;19.13;;
8365;SDS011;4220;42.502;24.188;2023-12-20T04:05:11;25.87;;;17.80;;
8365;SDS011;4220;42.502;24.188;2023-12-20T04:07:38;31.03;;;20.30;;
8365;SDS011;4220;42.502;24.188;2023-12-20T04:10:05;31.53;;;19.57;;
8365;SDS011;4220;42.502;24.188;2023-12-20T04:12:33;27.67;;;17.17;;
8365;SDS011;4220;42.502;24.188;2023-12-20T04:15:00;20.73;;;14.77;;
8365;SDS011;4220;42.502;24.188;2023-12-20T04:17:26;25.43;;;15.40;;
8365;SDS011;4220;42.502;24.188;2023-12-20T04:19:53;22.30;;;14.73;;
8365;SDS011;4220;42.502;24.188;2023-12-20T04:22:21;22.33;;;14.13;;
8365;SDS011;4220;42.502;24.188;2023-12-20T04:24:48;20.23;;;13.03;;
8365;SDS011;4220;42.502;24.188;2023-12-20T04:27:15;25.03;;;15.83;;
8365;SDS011;4220;42.502;24.188;2023-12-20T04:29:42;27.00;;;18.20;;
8365;SDS011;4220;42.502;24.188;2023-12-20T04:32:09;21.27;;;14.33;;
8365;SDS011;4220;42.502;24.188;2023-12-20T04:34:36;22.13;;;15.93;;
8365;SDS011;4220;42.502;24.188;2023-12-20T04:37:03;35.10;;;23.17;;
8365;SDS011;4220;42.502;24.188;2023-12-20T04:39:31;38.33;;;26.87;;
8365;SDS011;4220;42.502;24.188;2023-12-20T04:41:58;50.57;;;34.87;;
8365;SDS011;4220;42.502;24.188;2023-12-20T04:44:25;36.37;;;24.70;;
8365;SDS011;4220;42.502;24.188;2023-12-20T04:46:52;55.13;;;37.97;;
8365;SDS011;4220;42.502;24.188;2023-12-20T04:49:18;45.27;;;29.70;;
8365;SDS011;4220;42.502;24.188;2023-12-20T04:51:44;77.67;;;50.10;;
8365;SDS011;4220;42.502;24.188;2023-12-20T04:54:11;347.10;;;183.07;;
8365;SDS011;4220;42.502;24.188;2023-12-20T04:56:40;178.27;;;96.13;;
8365;SDS011;4220;42.502;24.188;2023-12-20T04:59:07;179.67;;;95.97;;
8365;SDS011;4220;42.502;24.188;2023-12-20T05:01:34;136.97;;;75.47;;
8365;SDS011;4220;42.502;24.188;2023-12-20T05:04:01;155.03;;;81.30;;
8365;SDS011;4220;42.502;24.188;2023-12-20T05:06:27;151.13;;;82.20;;
8365;SDS011;4220;42.502;24.188;2023-12-20T05:08:54;125.60;;;69.17;;
8365;SDS011;4220;42.502;24.188;2023-12-20T05:11:21;83.40;;;50.23;;
8365;SDS011;4220;42.502;24.188;2023-12-20T05:13:49;82.00;;;49.20;;
8365;SDS011;4220;42.502;24.188;2023-12-20T05:16:16;88.63;;;51.50;;
8365;SDS011;4220;42.502;24.188;2023-12-20T05:18:44;30.40;;;21.47;;
8365;SDS011;4220;42.502;24.188;2023-12-20T05:21:11;19.23;;;13.03;;
8365;SDS011;4220;42.502;24.188;2023-12-20T05:23:38;21.43;;;16.33;;
8365;SDS011;4220;42.502;24.188;2023-12-20T05:26:05;35.33;;;23.27;;
8365;SDS011;4220;42.502;24.188;2023-12-20T05:28:31;43.50;;;24.87;;
8365;SDS011;4220;42.502;24.188;2023-12-20T05:31:00;56.37;;;30.47;;
8365;SDS011;4220;42.502;24.188;2023-12-20T05:33:27;56.20;;;33.00;;
8365;SDS011;4220;42.502;24.188;2023-12-20T05:35:54;40.90;;;23.60;;
8365;SDS011;4220;42.502;24.188;2023-12-20T05:38:21;45.60;;;25.43;;
8365;SDS011;4220;42.502;24.188;2023-12-20T05:40:48;496.37;;;291.43;;
8365;SDS011;4220;42.502;24.188;2023-12-20T05:43:15;370.27;;;186.77;;
8365;SDS011;4220;42.502;24.188;2023-12-20T05:45:42;64.83;;;38.57;;
8365;SDS011;4220;42.502;24.188;2023-12-20T05:48:10;46.83;;;30.93;;
8365;SDS011;4220;42.502;24.188;2023-12-20T05:50:37;41.90;;;27.70;;
8365;SDS011;4220;42.502;24.188;2023-12-20T05:53:04;45.83;;;29.57;;
8365;SDS011;4220;42.502;24.188;2023-12-20T05:55:31;50.13;;;33.03;;
8365;SDS011;4220;42.502;24.188;2023-12-20T05:57:58;71.63;;;42.67;;
8365;SDS011;4220;42.502;24.188;2023-12-20T06:00:24;56.43;;;37.00;;
8365;SDS011;4220;42.502;24.188;2023-12-20T06:02:51;48.87;;;32.97;;
8365;SDS011;4220;42.502;24.188;2023-12-20T06:05:19;43.20;;;27.03;;
8365;SDS011;4220;42.502;24.188;2023-12-20T06:07:46;44.17;;;29.97;;
8365;SDS011;4220;42.502;24.188;2023-12-20T06:10:15;39.30;;;25.67;;
8365;SDS011;4220;42.502;24.188;2023-12-20T06:12:42;35.90;;;25.40;;
8365;SDS011;4220;42.502;24.188;2023-12-20T06:15:10;41.00;;;27.90;;
8365;SDS011;4220;42.502;24.188;2023-12-20T06:17:36;42.37;;;28.63;;
8365;SDS011;4220;42.502;24.188;2023-12-20T06:20:04;49.17;;;31.57;;
8365;SDS011;4220;42.502;24.188;2023-12-20T06:22:34;50.90;;;32.63;;
8365;SDS011;4220;42.502;24.188;2023-12-20T06:25:01;61.27;;;38.90;;
8365;SDS011;4220;42.502;24.188;2023-12-20T06:27:28;63.57;;;40.27;;
8365;SDS011;4220;42.502;24.188;2023-12-20T06:29:55;96.13;;;56.83;;
8365;SDS011;4220;42.502;24.188;2023-12-20T06:32:22;95.67;;;64.00;;
8365;SDS011;4220;42.502;24.188;2023-12-20T06:34:49;93.33;;;65.90;;
8365;SDS011;4220;42.502;24.188;2023-12-20T06:37:16;100.57;;;65.20;;
8365;SDS011;4220;42.502;24.188;2023-12-20T06:39:44;99.87;;;63.33;;
8365;SDS011;4220;42.502;24.188;2023-12-20T06:42:11;92.57;;;60.57;;
8365;SDS011;4220;42.502;24.188;2023-12-20T06:44:38;93.00;;;61.53;;
8365;SDS011;4220;42.502;24.188;2023-12-20T06:47:05;114.27;;;73.13;;
8365;SDS011;4220;42.502;24.188;2023-12-20T06:49:32;88.33;;;59.97;;
8365;SDS011;4220;42.502;24.188;2023-12-20T06:52:00;100.70;;;65.47;;
8365;SDS011;4220;42.502;24.188;2023-12-20T06:54:27;109.37;;;68.47;;
8365;SDS011;4220;42.502;24.188;2023-12-20T06:57:00;112.20;;;70.57;;
8365;SDS011;4220;42.502;24.188;2023-12-20T06:59:28;104.60;;;66.03;;
8365;SDS011;4220;42.502;24.188;2023-12-20T07:01:54;106.17;;;67.20;;
8365;SDS011;4220;42.502;24.188;2023-12-20T07:04:21;105.10;;;69.37;;
8365;SDS011;4220;42.502;24.188;2023-12-20T07:06:48;108.53;;;67.43;;
8365;SDS011;4220;42.502;24.188;2023-12-20T07:09:16;89.40;;;58.90;;
8365;SDS011;4220;42.502;24.188;2023-12-20T07:11:43;100.10;;;63.70;;
8365;SDS011;4220;42.502;24.188;2023-12-20T07:14:11;93.70;;;58.37;;
8365;SDS011;4220;42.502;24.188;2023-12-20T07:16:37;89.33;;;58.43;;
8365;SDS011;4220;42.502;24.188;2023-12-20T07:19:04;90.20;;;58.93;;
8365;SDS011;4220;42.502;24.188;2023-12-20T07:21:30;85.40;;;57.83;;
8365;SDS011;4220;42.502;24.188;2023-12-20T07:23:57;85.90;;;56.23;;
8365;SDS011;4220;42.502;24.188;2023-12-20T07:26:24;93.23;;;59.80;;
8365;SDS011;4220;42.502;24.188;2023-12-20T07:28:51;87.20;;;57.00;;
8365;SDS011;4220;42.502;24.188;2023-12-20T07:31:19;90.30;;;56.93;;
8365;SDS011;4220;42.502;24.188;2023-12-20T07:33:45;89.13;;;59.20;;
8365;SDS011;4220;42.502;24.188;2023-12-20T07:36:12;95.03;;;57.63;;
8365;SDS011;4220;42.502;24.188;2023-12-20T07:38:39;85.07;;;58.10;;
8365;SDS011;4220;42.502;24.188;2023-12-20T07:41:09;82.93;;;55.93;;
8365;SDS011;4220;42.502;24.188;2023-12-20T07:43:35;106.80;;;66.90;;
8365;SDS011;4220;42.502;24.188;2023-12-20T07:46:05;99.30;;;65.10;;
8365;SDS011;4220;42.502;24.188;2023-12-20T07:48:34;123.03;;;76.20;;
8365;SDS011;4220;42.502;24.188;2023-12-20T07:51:02;111.73;;;75.30;;
8365;SDS011;4220;42.502;24.188;2023-12-20T07:53:29;112.90;;;75.80;;
8365;SDS011;4220;42.502;24.188;2023-12-20T07:55:55;100.30;;;65.57;;
8365;SDS011;4220;42.502;24.188;2023-12-20T07:58:22;91.93;;;62.20;;
8365;SDS011;4220;42.502;24.188;2023-12-20T08:00:49;89.93;;;59.00;;
8365;SDS011;4220;42.502;24.188;2023-12-20T08:03:16;110.90;;;68.20;;
8365;SDS011;4220;42.502;24.188;2023-12-20T08:05:44;141.73;;;89.27;;
8365;SDS011;4220;42.502;24.188;2023-12-20T08:08:10;125.70;;;85.23;;
8365;SDS011;4220;42.502;24.188;2023-12-20T08:10:37;132.47;;;90.17;;
8365;SDS011;4220;42.502;24.188;2023-12-20T08:13:04;145.40;;;91.47;;
8365;SDS011;4220;42.502;24.188;2023-12-20T08:15:31;174.13;;;101.07;;
8365;SDS011;4220;42.502;24.188;2023-12-20T08:17:58;168.93;;;99.27;;
8365;SDS011;4220;42.502;24.188;2023-12-20T08:20:25;161.40;;;105.13;;
8365;SDS011;4220;42.502;24.188;2023-12-20T08:22:53;155.30;;;99.63;;
8365;SDS011;4220;42.502;24.188;2023-12-20T08:25:20;188.93;;;115.93;;
8365;SDS011;4220;42.502;24.188;2023-12-20T08:27:47;184.03;;;118.53;;
8365;SDS011;4220;42.502;24.188;2023-12-20T08:30:13;177.70;;;111.67;;
8365;SDS011;4220;42.502;24.188;2023-12-20T08:32:42;166.83;;;103.87;;
8365;SDS011;4220;42.502;24.188;2023-12-20T08:35:09;151.07;;;100.60;;
8365;SDS011;4220;42.502;24.188;2023-12-20T08:37:36;147.53;;;101.33;;
8365;SDS011;4220;42.502;24.188;2023-12-20T08:40:04;146.37;;;96.10;;
8365;SDS011;4220;42.502;24.188;2023-12-20T08:42:32;142.43;;;93.43;;
8365;SDS011;4220;42.502;24.188;2023-12-20T08:44:59;138.83;;;95.87;;
8365;SDS011;4220;42.502;24.188;2023-12-20T08:47:25;134.27;;;92.60;;
8365;SDS011;4220;42.502;24.188;2023-12-20T08:49:52;124.57;;;86.27;;
8365;SDS011;4220;42.502;24.188;2023-12-20T08:52:21;129.33;;;89.17;;
8365;SDS011;4220;42.502;24.188;2023-12-20T08:54:48;132.07;;;92.77;;
8365;SDS011;4220;42.502;24.188;2023-12-20T08:57:18;129.20;;;92.40;;
8365;SDS011;4220;42.502;24.188;2023-12-20T08:59:46;137.93;;;94.43;;
8365;SDS011;4220;42.502;24.188;2023-12-20T09:02:13;114.70;;;80.23;;
8365;SDS011;4220;42.502;24.188;2023-12-20T09:04:40;111.17;;;75.67;;
8365;SDS011;4220;42.502;24.188;2023-12-20T09:07:07;94.53;;;67.33;;
8365;SDS011;4220;42.502;24.188;2023-12-20T09:09:48;85.63;;;60.20;;
8365;SDS011;4220;42.502;24.188;2023-12-20T09:12:15;79.77;;;54.03;;
8365;SDS011;4220;42.502;24.188;2023-12-20T09:14:44;80.53;;;56.70;;
8365;SDS011;4220;42.502;24.188;2023-12-20T09:17:11;86.90;;;57.83;;
8365;SDS011;4220;42.502;24.188;2023-12-20T09:19:38;80.80;;;57.13;;
8365;SDS011;4220;42.502;24.188;2023-12-20T09:22:05;76.70;;;55.13;;
8365;SDS011;4220;42.502;24.188;2023-12-20T09:24:32;81.20;;;55.57;;
8365;SDS011;4220;42.502;24.188;2023-12-20T09:26:59;76.33;;;54.90;;
8365;SDS011;4220;42.502;24.188;2023-12-20T09:29:26;76.40;;;55.83;;
8365;SDS011;4220;42.502;24.188;2023-12-20T09:31:54;82.53;;;56.17;;
8365;SDS011;4220;42.502;24.188;2023-12-20T09:34:22;82.37;;;57.03;;
8365;SDS011;4220;42.502;24.188;2023-12-20T09:36:50;95.40;;;64.30;;
8365;SDS011;4220;42.502;24.188;2023-12-20T09:39:17;103.37;;;74.53;;
8365;SDS011;4220;42.502;24.188;2023-12-20T09:41:46;106.37;;;78.87;;
8365;SDS011;4220;42.502;24.188;2023-12-20T09:44:18;101.43;;;70.70;;
8365;SDS011;4220;42.502;24.188;2023-12-20T09:46:45;99.80;;;72.83;;
8365;SDS011;4220;42.502;24.188;2023-12-20T09:49:17;90.80;;;64.13;;
8365;SDS011;4220;42.502;24.188;2023-12-20T09:51:45;91.27;;;65.40;;
8365;SDS011;4220;42.502;24.188;2023-12-20T09:54:12;83.97;;;63.57;;
8365;SDS011;4220;42.502;24.188;2023-12-20T09:56:40;78.27;;;60.80;;
8365;SDS011;4220;42.502;24.188;2023-12-20T09:59:07;88.30;;;62.07;;
8365;SDS011;4220;42.502;24.188;2023-12-20T10:01:34;83.00;;;56.80;;
8365;SDS011;4220;42.502;24.188;2023-12-20T10:04:02;109.27;;;73.57;;
8365;SDS011;4220;42.502;24.188;2023-12-20T10:06:35;111.07;;;70.10;;
8365;SDS011;4220;42.502;24.188;2023-12-20T10:09:02;92.90;;;63.70;;
8365;SDS011;4220;42.502;24.188;2023-12-20T10:11:30;100.83;;;68.13;;
8365;SDS011;4220;42.502;24.188;2023-12-20T10:13:59;81.03;;;58.20;;
8365;SDS011;4220;42.502;24.188;2023-12-20T10:16:27;71.97;;;51.73;;
8365;SDS011;4220;42.502;24.188;2023-12-20T10:18:54;70.63;;;50.10;;
8365;SDS011;4220;42.502;24.188;2023-12-20T10:21:21;55.07;;;39.33;;
8365;SDS011;4220;42.502;24.188;2023-12-20T10:23:50;46.67;;;34.63;;
8365;SDS011;4220;42.502;24.188;2023-12-20T10:26:20;35.47;;;27.25;;
8365;SDS011;4220;42.502;24.188;2023-12-20T10:28:49;44.80;;;27.58;;
8365;SDS011;4220;42.502;24.188;2023-12-20T10:31:27;32.55;;;24.02;;
8365;SDS011;4220;42.502;24.188;2023-12-20T10:33:55;32.78;;;24.25;;
8365;SDS011;4220;42.502;24.188;2023-12-20T10:36:24;30.63;;;19.80;;
8365;SDS011;4220;42.502;24.188;2023-12-20T10:38:53;21.73;;;15.05;;
8365;SDS011;4220;42.502;24.188;2023-12-20T10:41:24;16.35;;;13.57;;
8365;SDS011;4220;42.502;24.188;2023-12-20T10:43:53;19.65;;;13.27;;
8365;SDS011;4220;42.502;24.188;2023-12-20T10:46:22;19.02;;;12.57;;
8365;SDS011;4220;42.502;24.188;2023-12-20T10:48:51;15.95;;;12.68;;
8365;SDS011;4220;42.502;24.188;2023-12-20T10:51:20;9.80;;;7.00;;
8365;SDS011;4220;42.502;24.188;2023-12-20T10:53:48;5.82;;;4.47;;
8365;SDS011;4220;42.502;24.188;2023-12-20T10:56:17;20.70;;;12.80;;
8365;SDS011;4220;42.502;24.188;2023-12-20T10:58:44;10.30;;;7.18;;
8365;SDS011;4220;42.502;24.188;2023-12-20T11:01:12;6.20;;;4.55;;
8365;SDS011;4220;42.502;24.188;2023-12-20T11:03:42;14.20;;;4.82;;
8365;SDS011;4220;42.502;24.188;2023-12-20T11:06:13;7.57;;;5.63;;
8365;SDS011;4220;42.502;24.188;2023-12-20T11:08:55;19.17;;;12.52;;
8365;SDS011;4220;42.502;24.188;2023-12-20T11:11:37;8.55;;;5.28;;
8365;SDS011;4220;42.502;24.188;2023-12-20T11:14:12;15.57;;;9.65;;
8365;SDS011;4220;42.502;24.188;2023-12-20T11:16:43;9.82;;;6.50;;
8365;SDS011;4220;42.502;24.188;2023-12-20T11:19:11;20.48;;;10.27;;
8365;SDS011;4220;42.502;24.188;2023-12-20T11:21:39;8.48;;;5.60;;
8365;SDS011;4220;42.502;24.188;2023-12-20T11:24:06;18.13;;;7.90;;
8365;SDS011;4220;42.502;24.188;2023-12-20T11:26:33;20.25;;;10.98;;
8365;SDS011;4220;42.502;24.188;2023-12-20T11:32:03;29.95;;;17.15;;
8365;SDS011;4220;42.502;24.188;2023-12-20T11:34:50;13.88;;;8.73;;
8365;SDS011;4220;42.502;24.188;2023-12-20T11:37:17;17.25;;;8.00;;
8365;SDS011;4220;42.502;24.188;2023-12-20T11:39:45;8.10;;;5.25;;
8365;SDS011;4220;42.502;24.188;2023-12-20T11:42:20;3.53;;;2.92;;
8365;SDS011;4220;42.502;24.188;2023-12-20T11:44:49;9.45;;;5.35;;
8365;SDS011;4220;42.502;24.188;2023-12-20T11:47:17;17.38;;;11.40;;
8365;SDS011;4220;42.502;24.188;2023-12-20T11:49:46;6.20;;;4.07;;
8365;SDS011;4220;42.502;24.188;2023-12-20T11:52:13;12.35;;;8.00;;
8365;SDS011;4220;42.502;24.188;2023-12-20T11:54:40;8.98;;;6.38;;
8365;SDS011;4220;42.502;24.188;2023-12-20T11:57:07;33.88;;;21.35;;
8365;SDS011;4220;42.502;24.188;2023-12-20T11:59:34;15.23;;;10.57;;
8365;SDS011;4220;42.502;24.188;2023-12-20T12:02:02;5.72;;;4.50;;
8365;SDS011;4220;42.502;24.188;2023-12-20T12:04:28;6.72;;;5.00;;
8365;SDS011;4220;42.502;24.188;2023-12-20T12:06:55;12.60;;;9.85;;
8365;SDS011;4220;42.502;24.188;2023-12-20T12:09:22;10.30;;;4.38;;
8365;SDS011;4220;42.502;24.188;2023-12-20T12:11:49;5.28;;;3.30;;
8365;SDS011;4220;42.502;24.188;2023-12-20T12:14:16;5.78;;;3.92;;
8365;SDS011;4220;42.502;24.188;2023-12-20T12:16:46;5.95;;;4.43;;
8365;SDS011;4220;42.502;24.188;2023-12-20T12:19:21;5.18;;;4.03;;
8365;SDS011;4220;42.502;24.188;2023-12-20T12:21:48;7.25;;;4.50;;
8365;SDS011;4220;42.502;24.188;2023-12-20T12:24:15;8.02;;;5.60;;
8365;SDS011;4220;42.502;24.188;2023-12-20T12:26:49;8.27;;;5.85;;
8365;SDS011;4220;42.502;24.188;2023-12-20T12:29:16;15.82;;;11.38;;
8365;SDS011;4220;42.502;24.188;2023-12-20T12:31:43;11.20;;;8.45;;
8365;SDS011;4220;42.502;24.188;2023-12-20T12:34:10;9.23;;;7.88;;
8365;SDS011;4220;42.502;24.188;2023-12-20T12:36:39;15.85;;;11.18;;
8365;SDS011;4220;42.502;24.188;2023-12-20T12:39:06;17.88;;;15.85;;
8365;SDS011;4220;42.502;24.188;2023-12-20T12:41:32;18.73;;;14.18;;
8365;SDS011;4220;42.502;24.188;2023-12-20T12:43:59;13.80;;;11.20;;
8365;SDS011;4220;42.502;24.188;2023-12-20T12:46:26;16.10;;;10.85;;
8365;SDS011;4220;42.502;24.188;2023-12-20T12:48:53;13.23;;;10.35;;
8365;SDS011;4220;42.502;24.188;2023-12-20T12:51:20;16.10;;;12.27;;
8365;SDS011;4220;42.502;24.188;2023-12-20T12:53:48;15.88;;;9.93;;
8365;SDS011;4220;42.502;24.188;2023-12-20T12:56:14;22.35;;;16.77;;
8365;SDS011;4220;42.502;24.188;2023-12-20T12:58:41;22.08;;;14.02;;
8365;SDS011;4220;42.502;24.188;2023-12-20T13:01:08;20.13;;;13.48;;
8365;SDS011;4220;42.502;24.188;2023-12-20T13:03:35;49.97;;;30.05;;
8365;SDS011;4220;42.502;24.188;2023-12-20T13:06:02;43.88;;;26.08;;
8365;SDS011;4220;42.502;24.188;2023-12-20T13:08:31;46.28;;;28.52;;
8365;SDS011;4220;42.502;24.188;2023-12-20T13:11:00;21.65;;;15.27;;
8365;SDS011;4220;42.502;24.188;2023-12-20T13:13:29;34.63;;;24.13;;
8365;SDS011;4220;42.502;24.188;2023-12-20T13:15:56;23.23;;;16.55;;
8365;SDS011;4220;42.502;24.188;2023-12-20T13:18:23;47.13;;;31.48;;
8365;SDS011;4220;42.502;24.188;2023-12-20T13:20:50;23.70;;;17.30;;
8365;SDS011;4220;42.502;24.188;2023-12-20T13:23:16;24.15;;;18.40;;
8365;SDS011;4220;42.502;24.188;2023-12-20T13:25:44;18.67;;;14.55;;
8365;SDS011;4220;42.502;24.188;2023-12-20T13:28:13;34.40;;;23.83;;
8365;SDS011;4220;42.502;24.188;2023-12-20T13:30:40;20.38;;;15.80;;
8365;SDS011;4220;42.502;24.188;2023-12-20T13:33:06;18.98;;;14.73;;
8365;SDS011;4220;42.502;24.188;2023-12-20T13:35:33;145.25;;;99.57;;
8365;SDS011;4220;42.502;24.188;2023-12-20T13:38:00;83.93;;;57.55;;
8365;SDS011;4220;42.502;24.188;2023-12-20T13:40:27;93.50;;;67.43;;
8365;SDS011;4220;42.502;24.188;2023-12-20T13:42:54;35.17;;;28.05;;
8365;SDS011;4220;42.502;24.188;2023-12-20T13:45:22;27.63;;;19.10;;
8365;SDS011;4220;42.502;24.188;2023-12-20T13:47:50;22.05;;;18.08;;
8365;SDS011;4220;42.502;24.188;2023-12-20T13:50:17;23.77;;;15.70;;
8365;SDS011;4220;42.502;24.188;2023-12-20T13:52:44;23.77;;;16.65;;
8365;SDS011;4220;42.502;24.188;2023-12-20T13:55:11;27.98;;;19.75;;
8365;SDS011;4220;42.502;24.188;2023-12-20T13:57:38;28.95;;;20.25;;
8365;SDS011;4220;42.502;24.188;2023-12-20T14:00:07;22.00;;;16.42;;
8365;SDS011;4220;42.502;24.188;2023-12-20T14:02:41;186.18;;;142.30;;
8365;SDS011;4220;42.502;24.188;2023-12-20T14:05:08;236.98;;;163.75;;
8365;SDS011;4220;42.502;24.188;2023-12-20T14:07:35;25.83;;;16.45;;
8365;SDS011;4220;42.502;24.188;2023-12-20T14:10:02;21.33;;;15.48;;
8365;SDS011;4220;42.502;24.188;2023-12-20T14:12:29;19.08;;;14.32;;
8365;SDS011;4220;42.502;24.188;2023-12-20T14:14:57;18.75;;;13.68;;
8365;SDS011;4220;42.502;24.188;2023-12-20T14:17:24;14.98;;;10.90;;
8365;SDS011;4220;42.502;24.188;2023-12-20T14:19:52;16.52;;;10.43;;
8365;SDS011;4220;42.502;24.188;2023-12-20T14:22:19;19.42;;;10.98;;
8365;SDS011;4220;42.502;24.188;2023-12-20T14:24:46;18.63;;;11.88;;
8365;SDS011;4220;42.502;24.188;2023-12-20T14:27:13;22.55;;;15.20;;
8365;SDS011;4220;42.502;24.188;2023-12-20T14:29:40;23.63;;;16.30;;
8365;SDS011;4220;42.502;24.188;2023-12-20T14:32:07;28.30;;;17.83;;
8365;SDS011;4220;42.502;24.188;2023-12-20T14:34:34;42.87;;;28.17;;
8365;SDS011;4220;42.502;24.188;2023-12-20T14:37:03;57.10;;;39.43;;
8365;SDS011;4220;42.502;24.188;2023-12-20T14:39:30;29.53;;;19.97;;
8365;SDS011;4220;42.502;24.188;2023-12-20T14:41:57;25.23;;;17.40;;